sensor_id;sensor_type;location;lat;lon;timestamp;pressure;altitude;pressure_sealevel;temperature;humidity
70943;BME280;59154;51.970;5.650;2023-05-24T03:10:07;102300;;;15.4648;65.4
70943;BME280;59154;51.970;5.650;2023-05-24T03:15:02;102300;;;15.6835;66.0
70943;BME280;59154;51.970;5.650;2023-05-24T03:50:12;102300;;;16.19209;64.7
70943;BME280;59154;51.970;5.650;2023-05-24T03:55:09;102300;;;16.21752;65.1
70943;BME280;59154;51.970;5.650;2023-05-24T04:35:02;102300;;;16.3701;64.9
70943;BME280;59154;51.970;5.650;2023-05-24T05:05:02;102300;;;16.92955;64.7
70943;BME280;59154;51.970;5.650;2023-05-24T05:40:03;102300;;;17.58564;65.5
70943;BME280;59154;51.970;5.650;2023-05-24T06:47:30;102300;;;18.50112;61.5
70943;BME280;59154;51.970;5.650;2023-05-24T11:25:02;102300;;;20.97298;53.1
70943;BME280;59154;51.970;5.650;2023-05-24T11:30:03;102300;;;21.0747;51.4
70943;BME280;59154;51.970;5.650;2023-05-24T11:35:03;102300;;;21.08996;52.9
70943;BME280;59154;51.970;5.650;2023-05-24T11:40:03;102300;;;21.10522;51.4
70943;BME280;59154;51.970;5.650;2023-05-24T13:50:03;102300;;;21.85798;49.4
70943;BME280;59154;51.970;5.650;2023-05-24T14:50:04;102300;;;21.64436;50.6
70943;BME280;59154;51.970;5.650;2023-05-24T15:05:34;102300;;;21.6647;52.0
70943;BME280;59154;51.970;5.650;2023-05-24T18:15:03;102300;;;21.446;52.2
70943;BME280;59154;51.970;5.650;2023-05-24T18:20:03;102300;;;21.45108;53.7
70943;BME280;59154;51.970;5.650;2023-05-24T18:25:02;102300;;;21.3341;51.8
70943;BME280;59154;51.970;5.650;2023-05-24T18:30:03;102300;;;21.39513;53.6
70943;BME280;59154;51.970;5.650;2023-05-24T18:35:02;102300;;;21.11539;51.1
70943;BME280;59154;51.970;5.650;2023-05-24T18:40:04;102300;;;21.04419;52.0
70943;BME280;59154;51.970;5.650;2023-05-24T18:45:03;102300;;;21.23238;52.0
70943;BME280;59154;51.970;5.650;2023-05-24T18:50:04;102300;;;21.24255;53.7
70943;BME280;59154;51.970;5.650;2023-05-24T18:55:03;102300;;;20.92212;52.9
70943;BME280;59154;51.970;5.650;2023-05-24T20:00:04;102400;;;20.40333;57.6
70943;BME280;59154;51.970;5.650;2023-05-24T20:05:02;102400;;;20.55591;57.0
70943;BME280;59154;51.970;5.650;2023-05-24T21:25:03;102400;;;20.05747;60.2
70943;BME280;59154;51.970;5.650;2023-05-24T21:30:03;102400;;;19.74213;59.6
70943;BME280;59154;51.970;5.650;2023-05-24T21:35:03;102400;;;19.87946;59.3
70943;BME280;59154;51.970;5.650;2023-05-24T21:40:04;102400;;;19.85402;60.4
70943;BME280;59154;51.970;5.650;2023-05-24T21:45:03;102400;;;19.82351;58.1
70943;BME280;59154;51.970;5.650;2023-05-24T21:50:03;102400;;;20.19988;59.9
70943;BME280;59154;51.970;5.650;2023-05-24T21:55:03;102400;;;19.63024;59.9
70943;BME280;59154;51.970;5.650;2023-05-24T22:00:04;102400;;;19.82351;60.0
70943;BME280;59154;51.970;5.650;2023-05-24T22:05:03;102400;;;19.90489;60.1
70943;BME280;59154;51.970;5.650;2023-05-24T22:10:04;102500;;;19.98626;59.2
70943;BME280;59154;51.970;5.650;2023-05-24T22:15:04;102500;;;19.67092;60.5
70943;BME280;59154;51.970;5.650;2023-05-24T22:20:04;102500;;;18.74526;61.2
70943;BME280;59154;51.970;5.650;2023-05-24T22:25:02;102500;;;19.29455;60.4
70943;BME280;59154;51.970;5.650;2023-05-24T22:30:03;102500;;;19.15723;60.5
70943;BME280;59154;51.970;5.650;2023-05-24T22:35:03;102500;;;19.06059;62.7
70943;BME280;59154;51.970;5.650;2023-05-24T22:40:04;102500;;;18.64862;61.9
70943;BME280;59154;51.970;5.650;2023-05-24T22:45:03;102500;;;18.73508;62.2
70943;BME280;59154;51.970;5.650;2023-05-24T22:50:03;102500;;;19.30981;61.5
70943;BME280;59154;51.970;5.650;2023-05-24T22:55:03;102500;;;19.28438;61.5
70943;BME280;59154;51.970;5.650;2023-05-24T23:00:04;102500;;;18.9487;61.5
70943;BME280;59154;51.970;5.650;2023-05-24T23:05:03;102500;;;19.04025;60.9
70943;BME280;59154;51.970;5.650;2023-05-24T23:20:04;102500;;;18.78594;63.5
70943;BME280;59154;51.970;5.650;2023-05-24T23:25:20;102500;;;18.85715;60.9
70943;BME280;59154;51.970;5.650;2023-05-24T23:30:04;102500;;;18.60285;60.9
70943;BME280;59154;51.970;5.650;2023-05-24T23:35:03;102500;;;18.49604;63.0
